TimePDT,TemperatureF,Dew PointF,Humidity,Sea Level PressureIn,VisibilityMPH,Wind Direction,Wind SpeedMPH,Gust SpeedMPH,PrecipitationIn,Events,Conditions,WindDirDegrees,DateUTC
12:53 AM,62.1,55.9,80,29.88,10.0,Calm,Calm,-,N/A,,Clear,0,2013-08-01 07:53:00
1:53 AM,61.0,55.9,83,29.87,10.0,East,4.6,-,N/A,,Clear,100,2013-08-01 08:53:00
2:53 AM,59.0,55.9,90,29.86,10.0,NW,6.9,-,N/A,,Clear,310,2013-08-01 09:53:00
3:53 AM,59.0,55.0,87,29.87,10.0,Calm,Calm,-,N/A,,Clear,0,2013-08-01 10:53:00
4:53 AM,61.0,54.0,78,29.88,10.0,Calm,Calm,-,N/A,,Clear,0,2013-08-01 11:53:00
5:53 AM,59.0,55.0,87,29.86,10.0,Calm,Calm,-,N/A,,Clear,0,2013-08-01 12:53:00
6:53 AM,63.0,55.0,75,29.85,10.0,NE,10.4,-,N/A,,Scattered Clouds,40,2013-08-01 13:53:00
7:53 AM,66.0,57.9,75,29.88,10.0,Calm,Calm,-,0.00,,Clear,0,2013-08-01 14:53:00
8:53 AM,70.0,57.9,65,29.89,10.0,South,5.8,-,N/A,,Clear,170,2013-08-01 15:53:00
9:53 AM,70.0,55.9,61,29.88,10.0,Calm,Calm,-,N/A,,Clear,0,2013-08-01 16:53:00
10:53 AM,71.1,55.0,57,29.89,10.0,SE,5.8,-,N/A,,Clear,130,2013-08-01 17:53:00
11:19 AM,71.6,55.4,57,29.89,10.0,SSW,13.8,-,N/A,,Partly Cloudy,210,2013-08-01 18:19:00
11:53 AM,73.0,55.9,55,29.89,10.0,South,11.5,-,N/A,,Clear,170,2013-08-01 18:53:00
12:53 PM,73.0,57.9,59,29.88,10.0,ESE,8.1,-,N/A,,Clear,110,2013-08-01 19:53:00
1:53 PM,80.1,57.0,45,29.88,10.0,SE,9.2,20.7,N/A,,Clear,140,2013-08-01 20:53:00
2:42 PM,82.4,55.4,39,29.87,10.0,South,18.4,-,N/A,,Partly Cloudy,190,2013-08-01 21:42:00
2:53 PM,81.0,55.0,41,29.87,10.0,SSW,18.4,-,N/A,,Scattered Clouds,210,2013-08-01 21:53:00
3:53 PM,81.0,54.0,39,29.85,10.0,SW,11.5,-,N/A,,Clear,230,2013-08-01 22:53:00
4:53 PM,81.0,51.1,35,29.83,10.0,SW,11.5,-,N/A,,Partly Cloudy,220,2013-08-01 23:53:00
5:53 PM,82.0,53.1,37,29.83,10.0,SSE,9.2,-,N/A,,Mostly Cloudy,160,2013-08-02 00:53:00
6:53 PM,80.1,54.0,40,29.82,10.0,SE,13.8,-,N/A,,Clear,140,2013-08-02 01:53:00
7:53 PM,78.1,55.0,45,29.83,10.0,South,9.2,-,N/A,,Mostly Cloudy,170,2013-08-02 02:53:00
8:53 PM,73.9,57.0,55,29.83,10.0,WNW,9.2,-,N/A,,Clear,300,2013-08-02 03:53:00
9:53 PM,70.0,57.0,63,29.87,10.0,NNW,9.2,-,N/A,,Clear,330,2013-08-02 04:53:00
10:53 PM,68.0,55.0,63,29.89,10.0,NW,11.5,-,N/A,,Clear,310,2013-08-02 05:53:00
11:53 PM,66.9,55.9,68,29.91,10.0,NW,8.1,-,N/A,,Clear,310,2013-08-02 06:53:00